This is the latest recevied weather packets stored in our database for station/object OE-11204. If no packets are shown the sender has not sent any weather packets the latest 10 day(s).
| Time | Temp. | Humidity | Pressure | Rain* | Wind** | Luminosity | Snow |
|---|---|---|---|---|---|---|---|
| 1787846715 | 27.78° C | 55% | 1013.2 hPa | 0 mm | - | 155 W/m² | - |
| 1787846115 | 27.78° C | 55% | 1013.2 hPa | 0 mm | - | 149 W/m² | - |
| 1787845287 | 27.78° C | 54% | 1013.2 hPa | 0 mm | - | 155 W/m² | - |
| 1787844915 | 27.78° C | 53% | 1013.1 hPa | 0 mm | - | 155 W/m² | - |
| 1787844315 | 27.78° C | 53% | 1013.1 hPa | 0 mm | - | 149 W/m² | - |
| 1787843488 | 27.78° C | 53% | 1012.9 hPa | 0 mm | - | 130 W/m² | - |
| 1787843115 | 27.78° C | 53% | 1012.9 hPa | 0 mm | - | 136 W/m² | - |
| 1787842515 | 28.33° C | 52% | 1012.8 hPa | 0 mm | - | 155 W/m² | - |
| 1787841686 | 28.33° C | 54% | 1012.7 hPa | 0 mm | - | 173 W/m² | - |
| 1787841315 | 28.33° C | 52% | 1012.6 hPa | 0 mm | - | 204 W/m² | - |
| 1787839888 | 28.89° C | 53% | 1012.5 hPa | 0 mm | - | 291 W/m² | - |
| 1787839515 | 29.44° C | 51% | 1012.5 hPa | 0 mm | - | 334 W/m² | - |
| 1787838915 | 29.44° C | 49% | 1012.5 hPa | 0 mm | - | 464 W/m² | - |
| 1787838088 | 28.89° C | 48% | 1012.6 hPa | 0 mm | - | 452 W/m² | - |
| 1787837715 | 29.44° C | 48% | 1012.5 hPa | 0 mm | - | 470 W/m² | - |
| 1787837115 | 28.89° C | 50% | 1012.7 hPa | 0 mm | - | 297 W/m² | - |
| 1787836288 | 28.89° C | 51% | 1012.6 hPa | 0 mm | - | 433 W/m² | - |
| 1787835914 | 28.89° C | 52% | 1012.6 hPa | 0 mm | - | 365 W/m² | - |
| 1787835315 | 28.89° C | 47% | 1012.9 hPa | 0 mm | - | 545 W/m² | - |
| 1787834488 | 28.89° C | 47% | 1013 hPa | 0 mm | - | 749 W/m² | - |
| 1787834114 | 28.33° C | 49% | 1013.1 hPa | 0 mm | - | 656 W/m² | - |
| 1787833515 | 28.33° C | 48% | 1013.3 hPa | 0 mm | - | 693 W/m² | - |
| 1787832688 | 28.33° C | 50% | 1013.5 hPa | 0 mm | - | 718 W/m² | - |
| 1787832315 | 27.78° C | 50% | 1013.8 hPa | 0 mm | - | 736 W/m² | - |
| 1787831714 | 27.78° C | 51% | 1014 hPa | 0 mm | - | 712 W/m² | - |
* Rain latest hour (hover to see other rain measurements)
** Current wind speed in m/s (hover to see current wind gust speed)